Time;durP1;ratioP1;P1;durP2;ratioP2;P2;SDS_P1;SDS_P2;PMS_P1;PMS_P2;Temp;Humidity;BMP_temperature;BMP_pressure;BME280_temperature;BME280_humidity;BME280_pressure;Samples;Min_cycle;Max_cycle;Signal;HPM_P1;HPM_P2
2022/04/02 00:01:43;;;;;;;;;;;;;;;2.09;100.00;99559.56;5096642;28;19924;-80
2022/04/02 00:04:10;;;;;;;;;;;;;;;2.09;100.00;99563.09;5078277;28;20022;-80
2022/04/02 00:06:38;;;;;;;;;;;;;;;2.13;100.00;99568.72;5078277;28;19935;-80
2022/04/02 00:09:05;;;;;;;;;;;;;;;2.07;100.00;99565.44;5076828;28;20498;-80
2022/04/02 00:11:32;;;;;;;;;;;;;;;2.13;100.00;99564.00;5095548;28;19931;-81
2022/04/02 00:13:59;;;;;;;;;;;;;;;2.21;100.00;99559.47;5111815;28;19989;-80
2022/04/02 00:16:27;;;;;;;;;;;;;;;2.20;100.00;99568.88;5095717;28;20389;-80
2022/04/02 00:18:55;;;;;;;;;;;;;;;2.09;100.00;99559.56;5096093;28;19935;-80
2022/04/02 00:21:22;;;;;;;;;;;;;;;1.50;100.00;99560.38;5096210;28;19928;-80
2022/04/02 00:23:49;;;;;;;;;;;;;;;1.28;100.00;99554.63;5095264;28;20375;-80
2022/04/02 00:26:20;;;;;;;;;;;;;;;1.32;100.00;99550.81;5077857;28;20038;-80
2022/04/02 00:28:49;;;;;;;;;;;;;;;1.53;100.00;99562.41;5061613;28;19963;-80
2022/04/02 00:31:17;;;;;;;;;;;;;;;1.68;100.00;99569.91;5095987;28;19924;-80
2022/04/02 00:33:46;;;;;;;;;;;;;;;1.24;100.00;99571.03;5077806;28;20312;-80
2022/04/02 00:36:15;;;;;;;;;;;;;;;1.52;100.00;99571.03;5095895;28;19924;-81
2022/04/02 00:38:42;;;;;;;;;;;;;;;1.88;100.00;99574.38;5061329;28;19974;-80
2022/04/02 00:41:09;;;;;;;;;;;;;;;1.76;100.00;99565.38;5060925;28;19924;-81
2022/04/02 00:43:39;;;;;;;;;;;;;;;2.05;100.00;99555.91;5094553;28;20363;-80
2022/04/02 00:46:07;;;;;;;;;;;;;;;2.20;100.00;99563.38;5111544;28;19924;-80
2022/04/02 00:48:34;;;;;;;;;;;;;;;2.30;100.00;99565.59;5077782;28;20027;-80
2022/04/02 00:51:02;;;;;;;;;;;;;;;2.35;100.00;99565.34;5060809;28;20355;-80
2022/04/02 00:53:37;;;;;;;;;;;;;;;2.27;100.00;99560.81;5077374;28;19934;-80
2022/04/02 00:56:05;;;;;;;;;;;;;;;2.36;100.00;99564.19;5094396;28;19928;-80
2022/04/02 00:58:32;;;;;;;;;;;;;;;2.36;100.00;99561.41;5060887;28;19924;-81
2022/04/02 01:01:00;;;;;;;;;;;;;;;1.71;100.00;99569.19;5094445;28;20347;-80
2022/04/02 01:03:34;;;;;;;;;;;;;;;1.52;100.00;99571.84;5077273;28;20405;-81
2022/04/02 01:06:03;;;;;;;;;;;;;;;1.62;100.00;99570.53;5060759;28;19931;-81
2022/04/02 01:08:36;;;;;;;;;;;;;;;1.75;100.00;99572.88;5076994;28;20366;-80
2022/04/02 01:11:04;;;;;;;;;;;;;;;1.39;100.00;99573.03;5111037;28;19924;-80
2022/04/02 01:13:32;;;;;;;;;;;;;;;2.02;100.00;99573.16;5093860;28;20349;-80
2022/04/02 01:16:05;;;;;;;;;;;;;;;2.26;100.00;99573.00;5060685;28;19928;-81
2022/04/02 01:18:34;;;;;;;;;;;;;;;2.36;100.00;99561.41;5076994;28;20041;-80
2022/04/02 01:21:02;;;;;;;;;;;;;;;2.48;100.00;99564.06;5077243;28;20015;-80
2022/04/02 01:23:36;;;;;;;;;;;;;;;2.57;100.00;99561.91;5076657;28;20395;-80
2022/04/02 01:26:10;;;;;;;;;;;;;;;2.57;100.00;99556.41;5092337;28;20383;-80
2022/04/02 01:28:53;;;;;;;;;;;;;;;2.40;100.00;99560.34;5078341;28;19935;-80
2022/04/02 01:31:25;;;;;;;;;;;;;;;2.48;100.00;99553.03;5077162;28;20378;-80
2022/04/02 01:33:53;;;;;;;;;;;;;;;2.55;100.00;99564.22;5060325;28;19924;-80
2022/04/02 01:36:24;;;;;;;;;;;;;;;2.55;100.00;99565.03;5076637;28;19954;-80
2022/04/02 01:39:09;;;;;;;;;;;;;;;2.54;100.00;99562.63;5076777;28;19966;-80
2022/04/02 01:41:37;;;;;;;;;;;;;;;2.66;100.00;99568.03;5076826;28;19924;-80
2022/04/02 01:44:05;;;;;;;;;;;;;;;2.65;100.00;99558.97;5076585;28;19928;-81
2022/04/02 01:46:34;;;;;;;;;;;;;;;2.61;100.00;99560.03;5043056;28;20282;-80
2022/04/02 01:49:01;;;;;;;;;;;;;;;2.65;100.00;99558.97;5076713;28;20023;-80
2022/04/02 01:51:29;;;;;;;;;;;;;;;2.66;100.00;99559.75;5059981;28;20290;-80
2022/04/02 01:53:56;;;;;;;;;;;;;;;2.67;100.00;99553.88;5076364;28;19931;-80
2022/04/02 01:56:24;;;;;;;;;;;;;;;2.60;100.00;99550.16;5060265;28;20271;-79
2022/04/02 01:59:03;;;;;;;;;;;;;;;2.43;100.00;99553.31;5076316;28;19931;-79
2022/04/02 02:01:32;;;;;;;;;;;;;;;2.36;100.00;99555.91;5093202;28;20356;-79
2022/04/02 02:03:59;;;;;;;;;;;;;;;2.30;100.00;99551.81;5076389;28;20317;-79
2022/04/02 02:06:27;;;;;;;;;;;;;;;2.25;100.00;99547.38;5092619;28;20020;-80
2022/04/02 02:08:54;;;;;;;;;;;;;;;2.53;100.00;99550.00;5059630;28;20015;-80
2022/04/02 02:11:54;;;;;;;;;;;;;;;2.65;100.00;99552.66;5051665;28;19929;-79
2022/04/02 02:14:21;;;;;;;;;;;;;;;2.85;100.00;99552.31;5035092;28;19929;-80
2022/04/02 02:16:59;;;;;;;;;;;;;;;2.90;100.00;99560.34;5035006;28;19925;-80
2022/04/02 02:19:26;;;;;;;;;;;;;;;2.96;100.00;99552.56;5035337;28;20465;-80
2022/04/02 02:21:54;;;;;;;;;;;;;;;2.96;100.00;99552.56;5034831;28;20038;-80
2022/04/02 02:24:21;;;;;;;;;;;;;;;2.82;100.00;99563.28;5035008;28;19925;-80
2022/04/02 02:26:49;;;;;;;;;;;;;;;2.00;100.00;99553.44;5035029;28;19924;-80
2022/04/02 02:29:28;;;;;;;;;;;;;;;1.86;100.00;99556.63;5018662;28;19953;-79
2022/04/02 02:31:59;;;;;;;;;;;;;;;2.46;100.00;99555.34;5031682;28;19947;-80
2022/04/02 02:37:12;;;;;;;;;;;;;;;2.83;100.00;99553.84;5015061;28;19929;-80
2022/04/02 02:39:47;;;;;;;;;;;;;;;2.83;100.00;99549.13;5015443;28;20384;-79
2022/04/02 02:42:19;;;;;;;;;;;;;;;2.69;100.00;99546.06;5015247;28;20031;-79
2022/04/02 02:44:54;;;;;;;;;;;;;;;2.70;100.00;99546.84;4999001;28;19925;-79
2022/04/02 02:47:22;;;;;;;;;;;;;;;2.77;100.00;99539.53;5030813;28;20355;-80
2022/04/02 02:49:51;;;;;;;;;;;;;;;2.67;100.00;99550.31;5059546;28;19931;-80
2022/04/02 02:52:23;;;;;;;;;;;;;;;2.71;100.00;99540.19;5059874;28;19976;-80
2022/04/02 02:54:53;;;;;;;;;;;;;;;2.74;100.00;99540.25;5076608;28;20513;-80
2022/04/02 02:57:20;;;;;;;;;;;;;;;2.83;100.00;99540.84;5093201;28;19924;-80
2022/04/02 02:59:48;;;;;;;;;;;;;;;2.83;100.00;99540.06;5076157;28;19931;-80
2022/04/02 03:02:18;;;;;;;;;;;;;;;2.85;100.00;99551.53;5059676;28;19924;-79
2022/04/02 03:04:50;;;;;;;;;;;;;;;2.86;100.00;99542.09;5092956;28;20012;-80
2022/04/02 03:07:28;;;;;;;;;;;;;;;2.82;100.00;99535.69;5092846;28;19928;-80
2022/04/02 03:09:57;;;;;;;;;;;;;;;2.84;100.00;99536.94;5059608;28;19998;-80
2022/04/02 03:12:28;;;;;;;;;;;;;;;2.86;100.00;99536.56;5076142;28;20406;-80
2022/04/02 03:14:56;;;;;;;;;;;;;;;2.93;100.00;99531.19;5092991;28;19924;-80
2022/04/02 03:17:25;;;;;;;;;;;;;;;2.93;100.00;99537.53;5059270;28;19993;-79
2022/04/02 03:19:54;;;;;;;;;;;;;;;2.90;100.00;99534.69;5059036;28;19925;-80
2022/04/02 03:22:21;;;;;;;;;;;;;;;1.98;100.00;99539.19;5092848;28;19931;-79
2022/04/02 03:24:49;;;;;;;;;;;;;;;2.22;100.00;99539.00;5042895;28;19932;-80
2022/04/02 03:27:17;;;;;;;;;;;;;;;2.54;100.00;99541.38;5076939;28;19947;-79
2022/04/02 03:29:48;;;;;;;;;;;;;;;2.66;100.00;99532.19;5059052;28;20118;-79
2022/04/02 03:32:17;;;;;;;;;;;;;;;2.32;100.00;99527.44;5058988;28;19928;-79
2022/04/02 03:34:44;;;;;;;;;;;;;;;2.22;100.00;99522.47;5042256;28;19931;-80
2022/04/02 03:37:13;;;;;;;;;;;;;;;2.09;100.00;99518.22;5059025;28;19925;-79
2022/04/02 03:39:41;;;;;;;;;;;;;;;2.08;100.00;99522.09;5058881;28;20017;-79
2022/04/02 03:42:09;;;;;;;;;;;;;;;2.16;100.00;99519.19;5058969;28;20252;-79
2022/04/02 03:44:37;;;;;;;;;;;;;;;2.38;100.00;99526.03;5075418;28;19925;-79
2022/04/02 03:47:10;;;;;;;;;;;;;;;2.46;100.00;99527.75;5058720;28;19931;-80
2022/04/02 03:49:56;;;;;;;;;;;;;;;1.78;100.00;99530.84;5075332;28;19936;-80
2022/04/02 03:52:47;;;;;;;;;;;;;;;1.76;100.00;99537.84;5071192;28;20371;-79
2022/04/02 03:55:20;;;;;;;;;;;;;;;1.66;100.00;99544.69;5058609;28;19946;-80
2022/04/02 03:57:49;;;;;;;;;;;;;;;1.64;100.00;99546.19;5057040;28;19925;-80
2022/04/02 04:00:20;;;;;;;;;;;;;;;1.67;100.00;99551.78;5058692;28;19931;-80
2022/04/02 04:03:03;;;;;;;;;;;;;;;2.08;100.00;99546.91;5074952;28;19924;-80
2022/04/02 04:05:43;;;;;;;;;;;;;;;2.36;100.00;99545.69;5073380;28;19990;-80
2022/04/02 04:08:12;;;;;;;;;;;;;;;2.48;100.00;99547.53;5058416;28;19932;-80
2022/04/02 04:10:41;;;;;;;;;;;;;;;2.49;100.00;99541.66;5058286;28;20066;-80
2022/04/02 04:13:09;;;;;;;;;;;;;;;2.54;100.00;99535.88;5058243;28;19931;-80
2022/04/02 04:15:40;;;;;;;;;;;;;;;2.54;100.00;99546.91;5058554;28;19974;-80
2022/04/02 04:18:08;;;;;;;;;;;;;;;2.65;100.00;99547.91;5077131;28;20001;-79
2022/04/02 04:20:37;;;;;;;;;;;;;;;2.35;100.00;99544.06;5078114;28;19930;-80
2022/04/02 04:23:07;;;;;;;;;;;;;;;2.35;100.00;99543.28;5078149;28;19931;-80
2022/04/02 04:25:35;;;;;;;;;;;;;;;2.21;100.00;99542.94;5078092;28;20425;-79
2022/04/02 04:28:04;;;;;;;;;;;;;;;2.28;100.00;99549.41;5111388;28;19924;-79
2022/04/02 04:30:32;;;;;;;;;;;;;;;2.34;100.00;99541.66;5077900;28;19930;-79
2022/04/02 04:32:59;;;;;;;;;;;;;;;2.30;100.00;99551.81;5095654;28;19970;-80
2022/04/02 04:35:38;;;;;;;;;;;;;;;2.20;100.00;99549.56;5079250;28;19986;-80
2022/04/02 04:38:06;;;;;;;;;;;;;;;2.38;100.00;99550.84;5077757;28;19928;-80
2022/04/02 04:40:33;;;;;;;;;;;;;;;2.29;100.00;99544.72;5061480;28;19931;-80
2022/04/02 04:43:01;;;;;;;;;;;;;;;2.33;100.00;99556.63;5077857;28;19924;-79
2022/04/02 04:45:33;;;;;;;;;;;;;;;2.21;100.00;99552.00;5093465;28;19931;-80
2022/04/02 04:48:02;;;;;;;;;;;;;;;2.25;100.00;99560.34;5077561;28;20286;-79
2022/04/02 04:50:35;;;;;;;;;;;;;;;2.26;100.00;99559.22;5061067;28;20046;-79
2022/04/02 04:53:02;;;;;;;;;;;;;;;2.19;100.00;99556.25;5111445;28;20381;-80
2022/04/02 04:55:30;;;;;;;;;;;;;;;2.19;100.00;99556.25;5060718;28;20385;-80
2022/04/02 04:57:59;;;;;;;;;;;;;;;2.04;100.00;99557.06;5077179;28;19928;-80
2022/04/02 05:00:29;;;;;;;;;;;;;;;1.93;100.00;99570.56;5060414;28;20268;-80
2022/04/02 05:02:56;;;;;;;;;;;;;;;2.02;100.00;99567.63;5077275;28;20356;-80
2022/04/02 05:05:33;;;;;;;;;;;;;;;2.04;100.00;99568.09;5095302;28;19924;-80
2022/04/02 05:08:03;;;;;;;;;;;;;;;2.13;100.00;99568.72;5076687;28;20019;-80
2022/04/02 05:10:32;;;;;;;;;;;;;;;2.11;100.00;99568.25;5077074;28;19928;-79
2022/04/02 05:13:03;;;;;;;;;;;;;;;2.05;100.00;99572.44;5111055;28;19967;-80
2022/04/02 05:15:31;;;;;;;;;;;;;;;2.12;100.00;99567.13;5076740;28;20374;-79
2022/04/02 05:18:01;;;;;;;;;;;;;;;2.15;100.00;99571.94;5077277;28;19924;-79
2022/04/02 05:20:29;;;;;;;;;;;;;;;2.10;100.00;99572.19;5076995;28;20302;-80
2022/04/02 05:22:58;;;;;;;;;;;;;;;2.16;100.00;99573.50;5076893;28;20018;-79
2022/04/02 05:25:26;;;;;;;;;;;;;;;2.17;100.00;99575.09;5076912;28;20003;-80
2022/04/02 05:27:54;;;;;;;;;;;;;;;2.12;100.00;99578.94;5093506;28;20073;-80
2022/04/02 05:30:22;;;;;;;;;;;;;;;2.13;100.00;99579.75;5076515;28;19924;-80
2022/04/02 05:32:49;;;;;;;;;;;;;;;2.13;100.00;99575.03;5075207;28;19924;-80
2022/04/02 05:35:16;;;;;;;;;;;;;;;2.15;100.00;99572.69;5093583;28;19935;-80
2022/04/02 05:37:44;;;;;;;;;;;;;;;2.16;100.00;99579.84;5092544;28;20872;-80
2022/04/02 05:40:11;;;;;;;;;;;;;;;2.06;100.00;99585.09;5042983;28;20381;-80
2022/04/02 05:42:39;;;;;;;;;;;;;;;2.08;100.00;99583.56;5076802;28;20287;-79
2022/04/02 05:45:08;;;;;;;;;;;;;;;2.04;100.00;99587.38;5071032;28;19951;-79
2022/04/02 05:47:44;;;;;;;;;;;;;;;2.08;100.00;99577.25;5055834;28;20487;-79
2022/04/02 05:50:12;;;;;;;;;;;;;;;2.02;100.00;99586.94;5046372;28;20022;-79
2022/04/02 05:52:56;;;;;;;;;;;;;;;2.10;100.00;99577.69;5076441;28;19932;-79
2022/04/02 05:55:24;;;;;;;;;;;;;;;2.10;100.00;99581.25;5094248;28;19931;-80
2022/04/02 05:57:52;;;;;;;;;;;;;;;2.11;100.00;99582.84;5110027;28;20027;-80
2022/04/02 06:00:19;;;;;;;;;;;;;;;1.99;100.00;99584.88;5094106;28;19931;-80
2022/04/02 06:02:49;;;;;;;;;;;;;;;2.15;100.00;99585.72;5094262;28;19928;-79
2022/04/02 06:05:17;;;;;;;;;;;;;;;2.17;100.00;99583.38;5094245;28;19924;-79
2022/04/02 06:07:50;;;;;;;;;;;;;;;1.93;100.00;99592.63;5076039;28;19964;-79
2022/04/02 06:10:23;;;;;;;;;;;;;;;2.18;100.00;99594.06;5093775;28;20010;-79
2022/04/02 06:12:54;;;;;;;;;;;;;;;2.18;100.00;99598.78;5093893;28;20008;-79
2022/04/02 06:15:24;;;;;;;;;;;;;;;2.26;100.00;99597.81;5094296;28;19931;-79
2022/04/02 06:17:51;;;;;;;;;;;;;;;2.54;100.00;99602.06;5093963;28;19924;-76
2022/04/02 06:20:19;;;;;;;;;;;;;;;2.64;100.00;99600.69;5093229;28;19974;-76
2022/04/02 06:22:46;;;;;;;;;;;;;;;2.96;100.00;99602.25;5094131;28;19967;-76
2022/04/02 06:25:13;;;;;;;;;;;;;;;3.16;100.00;99598.38;5109749;28;19931;-76
2022/04/02 06:27:41;;;;;;;;;;;;;;;3.10;100.00;99603.38;5109139;28;20505;-75
2022/04/02 06:30:09;;;;;;;;;;;;;;;3.09;100.00;99606.50;5093154;28;19928;-75
2022/04/02 06:32:38;;;;;;;;;;;;;;;3.18;100.00;99601.56;5093373;28;19943;-75
2022/04/02 06:35:06;;;;;;;;;;;;;;;3.21;100.00;99609.13;5058969;28;20018;-75
2022/04/02 06:37:35;;;;;;;;;;;;;;;3.16;100.00;99612.16;5075334;28;19931;-75
2022/04/02 06:40:04;;;;;;;;;;;;;;;3.21;100.00;99615.44;5093359;28;19931;-75
2022/04/02 06:42:31;;;;;;;;;;;;;;;3.35;100.00;99620.47;5089243;28;19954;-75
2022/04/02 06:45:00;;;;;;;;;;;;;;;3.46;100.00;99622.31;5075066;28;20387;-75
2022/04/02 06:47:28;;;;;;;;;;;;;;;3.45;100.00;99614.38;5090751;28;19924;-75
2022/04/02 06:49:55;;;;;;;;;;;;;;;3.59;100.00;99620.19;5073274;28;20421;-75
2022/04/02 06:52:22;;;;;;;;;;;;;;;3.71;100.00;99617.28;5074225;28;20372;-77
2022/04/02 06:54:50;;;;;;;;;;;;;;;3.78;100.00;99622.13;5093558;28;19924;-75
2022/04/02 06:57:19;;;;;;;;;;;;;;;3.30;100.00;99623.53;5091838;28;19924;-75
2022/04/02 06:59:53;;;;;;;;;;;;;;;2.88;100.00;99628.06;5093855;28;19928;-75
2022/04/02 07:02:23;;;;;;;;;;;;;;;2.90;100.00;99642.34;5093591;28;20011;-75
2022/04/02 07:04:53;;;;;;;;;;;;;;;2.71;100.00;99651.34;5092359;28;19924;-75
2022/04/02 07:07:21;;;;;;;;;;;;;;;2.57;100.00;99650.19;5091841;28;19939;-75
2022/04/02 07:09:51;;;;;;;;;;;;;;;2.86;100.00;99652.50;5092112;28;20290;-76
2022/04/02 07:12:18;;;;;;;;;;;;;;;2.79;100.00;99664.16;5074130;28;19989;-75
2022/04/02 07:14:45;;;;;;;;;;;;;;;2.52;100.00;99664.25;5091929;28;20379;-75
2022/04/02 07:17:13;;;;;;;;;;;;;;;2.95;100.00;99669.66;5091988;28;19924;-75
2022/04/02 07:19:41;;;;;;;;;;;;;;;2.89;100.00;99668.34;5057542;28;19924;-73
2022/04/02 07:22:09;;;;;;;;;;;;;;;3.08;100.00;99671.16;5073975;28;19931;-76
2022/04/02 07:24:39;;;;;;;;;;;;;;;3.37;100.00;99676.16;5092014;28;19931;-76
2022/04/02 07:27:10;;;;;;;;;;;;;;;3.51;100.00;99676.47;5088987;28;20083;-76
2022/04/02 07:29:38;;;;;;;;;;;;;;;4.08;100.00;99670.94;5091968;28;19924;-76
2022/04/02 07:32:10;;;;;;;;;;;;;;;4.52;100.00;99674.91;5076734;28;19924;-75
2022/04/02 07:34:37;;;;;;;;;;;;;;;4.72;100.00;99678.41;5096401;28;19978;-78
2022/04/02 07:37:08;;;;;;;;;;;;;;;4.78;100.00;99672.22;5096746;28;19924;-77
2022/04/02 07:39:45;;;;;;;;;;;;;;;4.98;100.00;99670.94;5078776;28;20026;-78
2022/04/02 07:42:23;;;;;;;;;;;;;;;4.80;100.00;99680.94;5074310;28;19924;-77
2022/04/02 07:44:51;;;;;;;;;;;;;;;5.25;100.00;99678.09;5070996;28;20260;-78
2022/04/02 07:47:20;;;;;;;;;;;;;;;5.36;100.00;99687.34;5078618;28;19924;-78
2022/04/02 07:49:47;;;;;;;;;;;;;;;5.46;100.00;99683.94;5096563;28;19978;-78
2022/04/02 07:52:14;;;;;;;;;;;;;;;5.63;100.00;99686.13;5062280;28;19924;-78
2022/04/02 07:54:42;;;;;;;;;;;;;;;5.96;100.00;99684.63;5078424;28;19966;-78
2022/04/02 07:57:11;;;;;;;;;;;;;;;5.96;100.00;99688.19;5096402;28;20018;-78
2022/04/02 07:59:49;;;;;;;;;;;;;;;6.06;100.00;99686.72;5061230;28;20073;-77
2022/04/02 08:05:02;;;;;;;;;;;;;;;5.92;100.00;99683.78;5096391;28;19931;-77
2022/04/02 08:07:30;;;;;;;;;;;;;;;6.00;100.00;99677.16;5095963;28;20016;-77
2022/04/02 08:10:00;;;;;;;;;;;;;;;6.16;100.00;99689.63;5094028;28;19927;-77
2022/04/02 08:12:28;;;;;;;;;;;;;;;6.44;100.00;99692.69;5075982;28;19962;-77
2022/04/02 08:14:55;;;;;;;;;;;;;;;6.46;100.00;99686.75;5074150;28;20015;-77
2022/04/02 08:17:22;;;;;;;;;;;;;;;6.91;100.00;99695.53;5090368;28;19924;-75
2022/04/02 08:19:53;;;;;;;;;;;;;;;7.55;100.00;99691.22;5073479;28;19924;-76
2022/04/02 08:22:22;;;;;;;;;;;;;;;8.33;100.00;99681.28;5091285;28;19954;-76
2022/04/02 08:24:49;;;;;;;;;;;;;;;8.67;100.00;99680.53;5090610;28;19986;-76
2022/04/02 08:27:16;;;;;;;;;;;;;;;8.84;100.00;99674.19;5091336;28;20515;-77
2022/04/02 08:30:02;;;;;;;;;;;;;;;9.12;100.00;99690.09;5074239;28;20260;-75
2022/04/02 08:32:36;;;;;;;;;;;;;;;8.18;100.00;99691.53;5092206;28;19931;-77
2022/04/02 08:35:07;;;;;;;;;;;;;;;9.26;100.00;99689.28;5074262;28;19951;-77
2022/04/02 08:37:37;;;;;;;;;;;;;;;9.72;100.00;99684.44;5074171;28;19935;-76
2022/04/02 08:40:07;;;;;;;;;;;;;;;9.47;100.00;99683.69;5091094;28;19931;-77
2022/04/02 08:42:44;;;;;;;;;;;;;;;9.24;100.00;99686.13;5090525;28;19924;-77
2022/04/02 08:45:13;;;;;;;;;;;;;;;8.97;100.00;99683.75;5089600;28;19924;-77
2022/04/02 08:47:59;;;;;;;;;;;;;;;8.79;100.00;99682.13;5092054;28;19951;-76
2022/04/02 08:50:31;;;;;;;;;;;;;;;8.62;100.00;99694.84;5090578;28;19927;-76
2022/04/02 08:53:17;;;;;;;;;;;;;;;8.34;100.00;99700.38;5090557;28;19928;-76
2022/04/02 08:55:49;;;;;;;;;;;;;;;8.41;100.00;99694.81;5078722;28;20454;-83
2022/04/02 08:58:22;;;;;;;;;;;;;;;8.42;100.00;99693.59;5069562;28;19982;-83
2022/04/02 09:01:03;;;;;;;;;;;;;;;8.47;100.00;99696.03;5093742;28;20019;-84
2022/04/02 09:03:49;;;;;;;;;;;;;;;8.53;100.00;99702.78;5064619;28;19929;-84
2022/04/02 09:06:25;;;;;;;;;;;;;;;8.47;100.00;99701.59;5057345;28;19928;-84
2022/04/02 09:09:02;;;;;;;;;;;;;;;8.59;100.00;99712.34;5090209;28;19924;-84
2022/04/02 09:11:38;;;;;;;;;;;;;;;8.75;100.00;99703.63;5056960;28;19924;-84
2022/04/02 09:14:09;;;;;;;;;;;;;;;8.76;100.00;99706.03;5074771;28;20379;-84
2022/04/02 09:16:43;;;;;;;;;;;;;;;8.74;100.00;99705.63;5090296;28;19924;-83
2022/04/02 09:19:22;;;;;;;;;;;;;;;8.36;100.00;99708.34;5074109;28;20294;-84
2022/04/02 09:21:58;;;;;;;;;;;;;;;8.80;100.00;99712.41;5084167;28;20317;-84
2022/04/02 09:24:28;;;;;;;;;;;;;;;8.89;100.00;99718.38;5107782;28;19939;-83
2022/04/02 09:27:14;;;;;;;;;;;;;;;9.28;100.00;99709.22;5060268;28;19997;-84
2022/04/02 09:29:48;;;;;;;;;;;;;;;9.15;100.00;99709.63;5076886;28;20381;-83
2022/04/02 09:32:34;;;;;;;;;;;;;;;9.14;100.00;99699.69;5077095;28;19927;-84
2022/04/02 09:35:20;;;;;;;;;;;;;;;9.41;100.00;99707.59;5043307;28;20391;-84
2022/04/02 09:37:59;;;;;;;;;;;;;;;9.16;100.00;99710.44;5043209;28;20014;-84
2022/04/02 09:40:43;;;;;;;;;;;;;;;9.30;100.00;99706.84;5093352;28;20363;-83
2022/04/02 09:43:25;;;;;;;;;;;;;;;9.64;100.00;99710.78;5076542;28;20379;-84
2022/04/02 09:45:58;;;;;;;;;;;;;;;9.06;100.00;99700.88;5060199;28;20298;-84
2022/04/02 09:48:30;;;;;;;;;;;;;;;8.75;100.00;99709.22;5076290;28;19924;-85
2022/04/02 09:50:58;;;;;;;;;;;;;;;8.83;100.00;99711.59;5076460;28;19925;-83
2022/04/02 09:53:29;;;;;;;;;;;;;;;8.08;100.00;99711.78;5076550;28;19931;-84
2022/04/02 09:55:56;;;;;;;;;;;;;;;8.58;100.00;99709.97;5093107;28;20022;-84
2022/04/02 09:58:23;;;;;;;;;;;;;;;8.97;100.00;99710.81;5093250;28;19924;-84
2022/04/02 10:01:04;;;;;;;;;;;;;;;8.42;100.00;99701.19;5071860;28;20272;-83
2022/04/02 10:03:37;;;;;;;;;;;;;;;8.56;100.00;99702.00;5074109;28;19931;-84
2022/04/02 10:06:24;;;;;;;;;;;;;;;8.51;100.00;99699.59;5072519;28;19924;-84
2022/04/02 10:08:51;;;;;;;;;;;;;;;9.04;100.00;99699.69;5072910;28;19925;-84
2022/04/02 10:11:19;;;;;;;;;;;;;;;9.19;100.00;99693.69;5071937;28;19924;-84
2022/04/02 10:13:47;;;;;;;;;;;;;;;9.13;100.00;99700.84;5093181;28;19924;-87
2022/04/02 10:16:18;;;;;;;;;;;;;;;8.83;100.00;99706.03;5093469;28;19931;-84
2022/04/02 10:18:46;;;;;;;;;;;;;;;9.44;100.00;99687.28;5075831;28;19924;-84
2022/04/02 10:21:14;;;;;;;;;;;;;;;9.50;100.00;99694.03;5075578;28;19959;-84
2022/04/02 10:23:50;;;;;;;;;;;;;;;10.12;100.00;99695.09;5059447;28;19924;-84
2022/04/02 10:26:18;;;;;;;;;;;;;;;10.54;100.00;99692.09;5075994;28;19988;-84
2022/04/02 10:28:49;;;;;;;;;;;;;;;10.36;100.00;99685.81;5042563;28;19931;-84
2022/04/02 10:31:34;;;;;;;;;;;;;;;9.76;100.00;99679.63;5110277;28;19928;-84
2022/04/02 10:34:20;;;;;;;;;;;;;;;9.38;100.00;99688.88;5075697;28;20375;-85
2022/04/02 10:36:52;;;;;;;;;;;;;;;9.18;100.00;99694.91;5093841;28;19931;-83
2022/04/02 10:39:22;;;;;;;;;;;;;;;8.91;100.00;99696.47;5075604;28;20298;-85
2022/04/02 10:41:53;;;;;;;;;;;;;;;8.94;100.00;99698.47;5059580;28;20435;-84
2022/04/02 10:44:39;;;;;;;;;;;;;;;8.73;100.00;99706.81;5076168;28;19924;-84
2022/04/02 10:47:08;;;;;;;;;;;;;;;8.39;100.00;99701.97;5059121;28;19997;-84
2022/04/02 10:49:39;;;;;;;;;;;;;;;8.35;100.00;99709.50;5092547;28;20415;-84
2022/04/02 10:52:10;;;;;;;;;;;;;;;8.71;100.00;99706.41;5093014;28;20295;-84
2022/04/02 10:54:39;;;;;;;;;;;;;;;8.33;100.00;99693.19;5057010;28;19932;-84
2022/04/02 10:57:30;;;;;;;;;;;;;;;8.18;100.00;99705.44;5058667;28;19928;-86
2022/04/02 11:00:00;;;;;;;;;;;;;;;8.37;100.00;99704.34;5093212;28;20020;-86
2022/04/02 11:02:37;;;;;;;;;;;;;;;8.32;100.00;99704.72;5074905;28;19928;-86
2022/04/02 11:05:05;;;;;;;;;;;;;;;8.21;100.00;99706.66;5057911;28;19924;-86
2022/04/02 11:07:37;;;;;;;;;;;;;;;8.22;100.00;99709.09;5110189;28;19924;-86
2022/04/02 11:10:04;;;;;;;;;;;;;;;8.09;100.00;99709.78;5061817;28;20389;-85
2022/04/02 11:12:41;;;;;;;;;;;;;;;8.17;100.00;99709.41;5078639;28;19925;-86
2022/04/02 11:15:11;;;;;;;;;;;;;;;7.68;100.00;99713.97;5095117;28;19971;-85
2022/04/02 11:17:41;;;;;;;;;;;;;;;7.96;100.00;99705.75;5094821;28;19928;-86
2022/04/02 11:20:15;;;;;;;;;;;;;;;8.09;100.00;99710.56;5061234;28;19936;-85
2022/04/02 11:22:50;;;;;;;;;;;;;;;8.04;100.00;99699.81;5062104;28;19931;-86
2022/04/02 11:25:21;;;;;;;;;;;;;;;8.25;100.00;99697.16;5078061;28;19924;-86
2022/04/02 11:27:50;;;;;;;;;;;;;;;8.38;100.00;99703.94;5078313;28;19927;-86
2022/04/02 11:30:18;;;;;;;;;;;;;;;8.58;100.00;99709.97;5095921;28;19928;-85
2022/04/02 11:32:46;;;;;;;;;;;;;;;8.23;100.00;99702.31;5044406;28;19931;-86
2022/04/02 11:35:23;;;;;;;;;;;;;;;8.33;100.00;99704.31;5078231;28;19924;-86
2022/04/02 11:37:53;;;;;;;;;;;;;;;8.78;100.00;99703.63;5094731;28;19955;-86
2022/04/02 11:40:22;;;;;;;;;;;;;;;9.19;100.00;99696.47;5094969;28;20286;-87
2022/04/02 11:42:50;;;;;;;;;;;;;;;9.22;100.00;99694.09;5094384;28;19930;-86
2022/04/02 11:45:20;;;;;;;;;;;;;;;9.05;100.00;99699.28;5078215;28;19931;-86
2022/04/02 11:47:49;;;;;;;;;;;;;;;8.60;100.00;99702.78;5044495;28;19939;-87
2022/04/02 11:50:26;;;;;;;;;;;;;;;8.58;100.00;99708.00;5061108;28;19924;-86
2022/04/02 11:52:58;;;;;;;;;;;;;;;8.81;100.00;99711.22;5060978;28;19931;-86
2022/04/02 11:55:26;;;;;;;;;;;;;;;8.65;100.00;99710.78;5094478;28;19924;-86
2022/04/02 11:57:56;;;;;;;;;;;;;;;8.59;100.00;99706.78;5079125;28;19924;-86
2022/04/02 12:00:25;;;;;;;;;;;;;;;8.78;100.00;99708.41;5097462;28;20302;-86
2022/04/02 12:02:53;;;;;;;;;;;;;;;8.89;100.00;99710.00;5096339;28;20023;-86
2022/04/02 12:05:20;;;;;;;;;;;;;;;8.60;100.00;99708.38;5080271;28;19928;-86
2022/04/02 12:07:50;;;;;;;;;;;;;;;8.82;100.00;99717.56;5097975;28;20031;-86
2022/04/02 12:10:47;;;;;;;;;;;;;;;9.20;100.00;99714.00;5080584;28;20234;-85
2022/04/02 12:13:14;;;;;;;;;;;;;;;9.04;100.00;99700.47;5064071;28;19924;-86
2022/04/02 12:15:50;;;;;;;;;;;;;;;8.94;100.00;99711.59;5080065;28;20023;-86
2022/04/02 12:18:17;;;;;;;;;;;;;;;8.70;100.00;99715.97;5113265;28;19938;-86
2022/04/02 12:20:44;;;;;;;;;;;;;;;8.89;100.00;99712.81;5097522;28;19923;-86
2022/04/02 12:23:16;;;;;;;;;;;;;;;8.95;100.00;99708.41;5080835;28;19931;-86
2022/04/02 12:25:45;;;;;;;;;;;;;;;9.14;100.00;99699.69;5080504;28;19930;-86
2022/04/02 12:28:19;;;;;;;;;;;;;;;9.50;100.00;99710.78;5080660;28;19951;-86
2022/04/02 12:30:48;;;;;;;;;;;;;;;9.77;100.00;99695.22;5077579;28;19923;-86
2022/04/02 12:33:24;;;;;;;;;;;;;;;9.97;100.00;99701.91;5040984;28;20015;-89
2022/04/02 12:35:58;;;;;;;;;;;;;;;9.57;100.00;99691.25;5057774;28;19924;-87
2022/04/02 12:38:27;;;;;;;;;;;;;;;10.10;100.00;99694.72;5074228;28;19924;-87
2022/04/02 12:40:57;;;;;;;;;;;;;;;9.81;100.00;99693.19;5075426;28;19931;-86
2022/04/02 12:43:25;;;;;;;;;;;;;;;10.04;100.00;99697.09;5040808;28;19931;-87
2022/04/02 12:45:53;;;;;;;;;;;;;;;9.88;100.00;99688.38;5041048;28;19955;-85
2022/04/02 12:48:21;;;;;;;;;;;;;;;10.01;100.00;99691.53;5073930;28;19932;-86
2022/04/02 12:51:01;;;;;;;;;;;;;;;9.94;100.00;99697.94;5057584;28;19924;-86
2022/04/02 12:53:32;;;;;;;;;;;;;;;9.91;100.00;99692.34;5075199;28;19931;-86
2022/04/02 12:56:01;;;;;;;;;;;;;;;10.05;100.00;99679.16;5024575;28;19924;-86
2022/04/02 12:58:39;;;;;;;;;;;;;;;9.85;100.00;99696.75;5057120;28;20387;-86
2022/04/02 13:01:14;;;;;;;;;;;;;;;10.43;100.00;99696.94;5057322;28;19925;-86
2022/04/02 13:03:42;;;;;;;;;;;;;;;10.63;100.00;99703.63;5057382;28;19924;-88
2022/04/02 13:06:18;;;;;;;;;;;;;;;10.50;100.00;99720.06;5090485;28;19928;-86
2022/04/02 13:08:56;;;;;;;;;;;;;;;10.36;100.00;99719.34;5057109;28;19983;-86
2022/04/02 13:11:30;;;;;;;;;;;;;;;10.53;100.00;99729.63;5057016;28;20448;-86